createdAt,value
2018-05-17T00:01:40.651Z,54.70
2018-05-17T00:04:09.042Z,54.70
2018-05-17T00:06:36.502Z,54.60
2018-05-17T00:09:04.834Z,54.70
2018-05-17T00:11:32.289Z,54.60
2018-05-17T00:13:59.835Z,54.60
2018-05-17T00:16:27.363Z,54.50
2018-05-17T00:18:55.717Z,54.80
2018-05-17T00:21:23.162Z,54.70
2018-05-17T00:23:50.617Z,55.00
2018-05-17T00:26:18.668Z,55.50
2018-05-17T00:28:46.110Z,55.10
2018-05-17T00:31:14.475Z,55.10
2018-05-17T00:33:42.019Z,55.70
2018-05-17T00:36:09.537Z,55.40
2018-05-17T00:38:37.004Z,55.90
2018-05-17T00:41:06.045Z,55.70
2018-05-17T00:43:33.508Z,55.60
2018-05-17T00:46:01.033Z,55.70
2018-05-17T00:48:28.556Z,55.50
2018-05-17T00:50:56.010Z,55.80
2018-05-17T00:53:31.408Z,55.60
2018-05-17T00:55:59.115Z,55.70
2018-05-17T00:58:26.584Z,55.60
2018-05-17T01:00:54.871Z,55.70
2018-05-17T01:03:22.872Z,55.60
2018-05-17T01:05:50.685Z,55.70
2018-05-17T01:08:18.188Z,55.70
2018-05-17T01:10:46.657Z,56.00
2018-05-17T01:13:14.946Z,56.40
2018-05-17T01:15:43.420Z,56.80
2018-05-17T01:18:11.743Z,56.60
2018-05-17T01:20:39.210Z,56.50
2018-05-17T01:23:06.679Z,56.40
2018-05-17T01:25:34.113Z,56.90
2018-05-17T01:28:01.556Z,56.60
2018-05-17T01:30:29.065Z,56.80
2018-05-17T01:32:57.287Z,56.50
2018-05-17T01:35:24.743Z,56.40
2018-05-17T01:38:03.965Z,56.20
2018-05-17T01:40:31.526Z,56.00
2018-05-17T01:42:59.086Z,56.20
2018-05-17T01:45:27.240Z,56.40
2018-05-17T01:47:54.758Z,56.30
2018-05-17T01:50:22.392Z,56.40
2018-05-17T01:52:50.859Z,56.40
2018-05-17T01:55:18.328Z,56.30
2018-05-17T01:57:45.789Z,56.50
2018-05-17T02:00:13.333Z,56.60
2018-05-17T02:02:41.093Z,56.60
2018-05-17T02:05:08.575Z,56.70
2018-05-17T02:07:36.160Z,56.80
2018-05-17T02:10:03.584Z,56.00
2018-05-17T02:12:31.992Z,56.30
2018-05-17T02:14:59.501Z,56.30
2018-05-17T02:17:26.954Z,56.10
2018-05-17T02:19:54.590Z,56.30
2018-05-17T02:22:23.628Z,56.30
2018-05-17T02:24:51.084Z,56.30
2018-05-17T02:27:19.356Z,56.60
2018-05-17T02:29:46.892Z,56.50
2018-05-17T02:32:14.380Z,56.80
2018-05-17T02:34:41.839Z,56.80
2018-05-17T02:37:09.730Z,56.70
2018-05-17T02:39:37.283Z,57.20
2018-05-17T02:42:04.743Z,57.40
2018-05-17T02:44:34.784Z,56.90
2018-05-17T02:47:02.996Z,57.00
2018-05-17T02:49:31.330Z,56.90
2018-05-17T02:51:58.812Z,56.90
2018-05-17T02:54:26.345Z,57.20
2018-05-17T02:56:54.574Z,57.00
2018-05-17T02:59:22.115Z,56.90
2018-05-17T03:01:49.598Z,56.70
2018-05-17T03:04:17.056Z,56.80
2018-05-17T03:06:44.543Z,57.10
2018-05-17T03:09:13.132Z,57.20
2018-05-17T03:11:40.733Z,57.10
2018-05-17T03:14:08.484Z,56.90
2018-05-17T03:16:36.057Z,56.80
2018-05-17T03:19:03.728Z,57.20
2018-05-17T03:21:31.594Z,56.40
2018-05-17T03:23:59.768Z,56.90
2018-05-17T03:26:27.492Z,56.30
2018-05-17T03:28:55.184Z,56.10
2018-05-17T03:31:22.696Z,56.60
2018-05-17T03:33:50.143Z,56.30
2018-05-17T03:36:17.660Z,55.60
2018-05-17T03:38:45.180Z,55.50
2018-05-17T03:41:13.511Z,55.70
2018-05-17T03:43:40.966Z,55.70
2018-05-17T03:46:08.466Z,55.40
2018-05-17T03:48:36.681Z,55.60
2018-05-17T03:51:04.231Z,55.50
2018-05-17T03:53:31.703Z,55.20
2018-05-17T03:55:59.887Z,55.00
2018-05-17T03:58:28.353Z,55.10
2018-05-17T04:01:07.677Z,55.00
2018-05-17T04:03:47.139Z,56.10
2018-05-17T04:06:26.685Z,55.40
2018-05-17T04:08:54.146Z,55.50
2018-05-17T04:11:21.593Z,55.80
2018-05-17T04:13:49.133Z,55.50
2018-05-17T04:16:17.431Z,55.50
2018-05-17T04:18:44.942Z,55.50
2018-05-17T04:21:12.400Z,55.70
2018-05-17T04:23:39.979Z,55.20
2018-05-17T04:26:10.078Z,56.10
2018-05-17T04:28:37.529Z,56.00
2018-05-17T04:31:05.890Z,56.10
2018-05-17T04:33:34.091Z,56.00
2018-05-17T04:36:01.720Z,56.00
2018-05-17T04:38:30.894Z,55.90
2018-05-17T04:40:58.932Z,55.60
2018-05-17T04:43:26.415Z,55.20
2018-05-17T04:45:54.137Z,54.90
2018-05-17T04:48:21.579Z,55.30
2018-05-17T04:50:49.829Z,54.60
2018-05-17T04:53:17.295Z,54.60
2018-05-17T04:55:44.766Z,55.10
2018-05-17T04:58:12.976Z,55.60
2018-05-17T05:00:40.444Z,55.50
2018-05-17T05:03:07.884Z,55.70
2018-05-17T05:05:35.330Z,56.00
2018-05-17T05:08:02.811Z,55.90
2018-05-17T05:10:30.255Z,56.10
2018-05-17T05:12:57.696Z,55.90
2018-05-17T05:15:25.171Z,55.60
2018-05-17T05:17:53.593Z,55.40
2018-05-17T05:20:21.031Z,55.70
2018-05-17T05:22:48.644Z,55.60
2018-05-17T05:25:16.311Z,55.70
2018-05-17T05:27:44.512Z,55.90
2018-05-17T05:30:11.993Z,55.90
2018-05-17T05:32:39.454Z,56.10
2018-05-17T05:35:06.900Z,56.00
2018-05-17T05:37:34.454Z,56.50
2018-05-17T05:40:01.818Z,56.10
2018-05-17T05:42:29.280Z,55.50
2018-05-17T05:44:56.738Z,56.00
2018-05-17T05:47:24.183Z,55.50
2018-05-17T05:49:51.746Z,55.30
2018-05-17T05:52:19.220Z,55.00
2018-05-17T05:54:46.834Z,55.50
2018-05-17T05:57:14.330Z,55.50
2018-05-17T05:59:41.864Z,55.30
2018-05-17T06:02:09.339Z,55.40
2018-05-17T06:04:36.807Z,55.60
2018-05-17T06:07:04.300Z,55.50
2018-05-17T06:09:31.804Z,55.90
2018-05-17T06:11:59.289Z,55.10
2018-05-17T06:14:27.511Z,55.30
2018-05-17T06:16:54.959Z,55.80
2018-05-17T06:19:22.492Z,55.00
2018-05-17T06:21:49.994Z,55.00
2018-05-17T06:24:17.447Z,55.10
2018-05-17T06:26:44.976Z,54.60
2018-05-17T06:29:12.475Z,54.30
2018-05-17T06:31:40.050Z,53.90
2018-05-17T06:34:07.568Z,54.70
2018-05-17T06:36:35.176Z,55.00
2018-05-17T06:39:02.642Z,55.30
2018-05-17T06:41:31.190Z,54.90
2018-05-17T06:43:58.732Z,54.80
2018-05-17T06:46:26.111Z,54.40
2018-05-17T06:48:53.597Z,54.70
2018-05-17T06:51:21.863Z,53.40
2018-05-17T06:53:49.295Z,53.40
2018-05-17T06:56:16.753Z,53.80
2018-05-17T06:58:44.224Z,53.60
2018-05-17T07:01:12.519Z,54.20
2018-05-17T07:03:39.877Z,54.20
2018-05-17T07:06:08.107Z,54.70
2018-05-17T07:08:35.840Z,54.70
2018-05-17T07:11:03.330Z,54.40
2018-05-17T07:13:31.171Z,54.40
2018-05-17T07:15:58.630Z,53.90
2018-05-17T07:18:26.269Z,54.10
2018-05-17T07:20:53.641Z,54.50
2018-05-17T07:23:21.086Z,53.90
2018-05-17T07:25:48.536Z,53.50
2018-05-17T07:28:16.012Z,53.10
2018-05-17T07:30:43.464Z,52.70
2018-05-17T07:33:10.895Z,53.40
2018-05-17T07:35:38.368Z,54.60
2018-05-17T07:38:05.807Z,55.00
2018-05-17T07:40:34.107Z,54.70
2018-05-17T07:43:01.579Z,54.60
2018-05-17T07:45:29.240Z,53.70
2018-05-17T07:47:56.718Z,52.70
2018-05-17T07:50:25.100Z,52.20
2018-05-17T07:52:52.558Z,51.20
2018-05-17T07:55:20.212Z,53.50
2018-05-17T07:57:48.418Z,52.00
2018-05-17T08:00:16.727Z,52.00
2018-05-17T08:02:44.231Z,52.00
2018-05-17T08:05:13.284Z,52.70
2018-05-17T08:07:40.739Z,52.70
2018-05-17T08:10:08.193Z,52.70
2018-05-17T08:12:35.671Z,53.10
2018-05-17T08:15:03.110Z,52.50
2018-05-17T08:17:31.351Z,52.70
2018-05-17T08:19:59.585Z,50.80
2018-05-17T08:22:27.909Z,50.80
2018-05-17T08:24:56.107Z,49.20
2018-05-17T08:27:23.606Z,49.20
2018-05-17T08:29:51.821Z,49.90
2018-05-17T08:32:19.293Z,49.90
2018-05-17T08:34:46.734Z,50.50
2018-05-17T08:37:14.840Z,50.40
2018-05-17T08:39:42.281Z,50.10
2018-05-17T08:42:09.825Z,49.70
2018-05-17T08:44:37.327Z,50.50
2018-05-17T08:47:04.841Z,50.90
2018-05-17T08:49:32.301Z,51.20
2018-05-17T08:51:59.747Z,50.70
2018-05-17T08:54:27.213Z,52.00
2018-05-17T08:56:54.663Z,52.00
2018-05-17T08:59:22.114Z,51.60
2018-05-17T09:01:49.559Z,52.80
2018-05-17T09:04:17.839Z,52.60
2018-05-17T09:06:46.062Z,53.40
2018-05-17T09:09:13.495Z,53.40
2018-05-17T09:11:42.690Z,51.50
2018-05-17T09:14:10.136Z,49.30
2018-05-17T09:16:37.580Z,50.10
2018-05-17T09:19:05.500Z,49.00
2018-05-17T09:21:33.851Z,50.60
2018-05-17T09:24:01.491Z,50.60
2018-05-17T09:26:28.964Z,50.30
2018-05-17T09:28:57.023Z,50.50
2018-05-17T09:31:24.476Z,50.20
2018-05-17T09:33:52.141Z,49.10
2018-05-17T09:36:19.608Z,49.70
2018-05-17T09:38:47.062Z,49.00
2018-05-17T09:41:14.527Z,48.20
2018-05-17T09:43:41.979Z,49.20
2018-05-17T09:46:09.438Z,49.00
2018-05-17T09:48:36.997Z,48.70
2018-05-17T09:51:04.439Z,48.80
2018-05-17T09:53:31.897Z,48.40
2018-05-17T09:55:59.469Z,49.20
2018-05-17T09:58:26.908Z,49.60
2018-05-17T10:00:55.140Z,48.30
2018-05-17T10:03:23.434Z,50.90
2018-05-17T10:05:51.676Z,51.00
2018-05-17T10:08:19.126Z,51.00
2018-05-17T10:10:46.657Z,50.20
2018-05-17T10:13:14.632Z,49.70
2018-05-17T10:15:42.068Z,48.30
2018-05-17T10:18:09.529Z,48.20
2018-05-17T10:20:36.979Z,49.00
2018-05-17T10:23:04.456Z,47.70
2018-05-17T10:25:33.570Z,49.00
2018-05-17T10:28:01.030Z,49.00
2018-05-17T10:30:28.467Z,48.10
2018-05-17T10:32:56.023Z,48.20
2018-05-17T10:35:23.482Z,47.50
2018-05-17T10:37:50.952Z,46.50
2018-05-17T10:40:18.431Z,46.00
2018-05-17T10:42:46.068Z,47.50
2018-05-17T10:45:16.948Z,43.60
2018-05-17T10:47:44.553Z,43.60
2018-05-17T10:50:11.983Z,43.90
2018-05-17T10:52:40.306Z,44.20
2018-05-17T10:55:07.788Z,44.20
2018-05-17T10:57:37.386Z,45.10
2018-05-17T11:00:05.634Z,45.40
2018-05-17T11:02:33.218Z,45.40
2018-05-17T11:05:00.632Z,46.50
2018-05-17T11:07:28.208Z,46.00
2018-05-17T11:09:55.671Z,46.20
2018-05-17T11:12:23.124Z,45.60
2018-05-17T11:14:50.606Z,45.70
2018-05-17T11:17:18.834Z,45.20
2018-05-17T11:19:46.279Z,45.20
2018-05-17T11:22:13.721Z,46.50
2018-05-17T11:24:41.998Z,43.10
2018-05-17T11:27:10.336Z,44.40
2018-05-17T11:29:37.780Z,44.30
2018-05-17T11:32:05.246Z,45.20
2018-05-17T11:34:32.851Z,44.20
2018-05-17T11:37:01.068Z,43.20
2018-05-17T11:39:28.579Z,43.20
2018-05-17T11:41:56.788Z,42.30
2018-05-17T11:44:24.251Z,41.80
2018-05-17T11:46:51.720Z,42.00
2018-05-17T11:49:19.199Z,40.30
2018-05-17T11:51:46.659Z,40.20
2018-05-17T11:54:17.733Z,39.50
2018-05-17T11:56:45.943Z,40.90
2018-05-17T11:59:13.411Z,40.80
2018-05-17T12:01:40.868Z,41.90
2018-05-17T12:04:08.315Z,42.10
2018-05-17T12:06:35.769Z,41.60
2018-05-17T12:09:03.313Z,40.90
2018-05-17T12:11:30.756Z,41.10
2018-05-17T12:13:58.210Z,40.80
2018-05-17T12:16:25.680Z,41.20
2018-05-17T12:18:53.129Z,41.30
2018-05-17T12:21:20.765Z,39.00
2018-05-17T12:23:49.037Z,38.70
2018-05-17T12:26:16.668Z,38.70
2018-05-17T12:28:44.280Z,38.00
2018-05-17T12:31:11.788Z,39.20
2018-05-17T12:33:39.230Z,39.40
2018-05-17T12:36:06.678Z,40.00
2018-05-17T12:38:34.253Z,40.10
2018-05-17T12:41:01.697Z,39.80
2018-05-17T12:43:29.143Z,38.40
2018-05-17T12:45:56.632Z,37.90
2018-05-17T12:48:24.097Z,38.90
2018-05-17T12:50:51.560Z,38.30
2018-05-17T12:53:19.194Z,39.50
2018-05-17T12:55:46.648Z,38.80
2018-05-17T12:58:14.471Z,39.20
2018-05-17T13:00:41.945Z,39.20
2018-05-17T13:03:09.820Z,38.70
2018-05-17T13:05:37.352Z,39.20
2018-05-17T13:08:04.956Z,39.20
2018-05-17T13:10:32.459Z,37.20
2018-05-17T13:13:00.795Z,36.80
2018-05-17T13:15:28.202Z,36.70
2018-05-17T13:17:55.659Z,37.00
2018-05-17T13:20:23.901Z,37.60
2018-05-17T13:22:51.399Z,37.60
2018-05-17T13:25:18.866Z,36.00
2018-05-17T13:27:46.317Z,37.50
2018-05-17T13:30:14.699Z,37.30
2018-05-17T13:32:42.057Z,36.70
2018-05-17T13:35:09.543Z,37.60
2018-05-17T13:37:37.052Z,37.60
2018-05-17T13:40:04.533Z,36.00
2018-05-17T13:42:31.967Z,35.80
2018-05-17T13:44:59.705Z,36.60
2018-05-17T13:47:27.239Z,36.60
2018-05-17T13:49:54.695Z,36.30
2018-05-17T13:52:22.172Z,37.00
2018-05-17T13:54:49.620Z,35.80
2018-05-17T13:57:17.071Z,35.80
2018-05-17T13:59:44.526Z,36.20
2018-05-17T14:02:11.991Z,34.80
2018-05-17T14:04:39.424Z,36.60
2018-05-17T14:07:06.880Z,35.50
2018-05-17T14:09:34.404Z,35.70
2018-05-17T14:12:02.170Z,36.00
2018-05-17T14:14:29.675Z,34.90
2018-05-17T14:16:58.679Z,35.60
2018-05-17T14:19:26.157Z,35.50
2018-05-17T14:21:55.239Z,36.10
2018-05-17T14:24:22.711Z,36.00
2018-05-17T14:26:51.151Z,35.70
2018-05-17T14:29:19.407Z,35.80
2018-05-17T14:31:48.081Z,35.80
2018-05-17T14:34:16.287Z,35.60
2018-05-17T14:36:43.773Z,35.60
2018-05-17T14:39:12.089Z,36.60
2018-05-17T14:41:39.582Z,36.00
2018-05-17T14:44:07.068Z,35.30
2018-05-17T14:46:35.310Z,33.90
2018-05-17T14:49:02.771Z,33.90
2018-05-17T14:51:30.286Z,34.80
2018-05-17T14:53:57.756Z,33.70
2018-05-17T14:56:25.211Z,35.10
2018-05-17T14:58:52.689Z,34.80
2018-05-17T15:01:20.139Z,34.90
2018-05-17T15:03:47.622Z,36.10
2018-05-17T15:06:15.095Z,35.80
2018-05-17T15:08:43.684Z,37.10
2018-05-17T15:11:14.749Z,37.10
2018-05-17T15:13:38.831Z,36.60
2018-05-17T15:16:06.282Z,37.50
2018-05-17T15:18:33.739Z,34.70
2018-05-17T15:21:01.228Z,36.40
2018-05-17T15:23:28.676Z,37.00
2018-05-17T15:25:56.132Z,37.30
2018-05-17T15:28:23.627Z,36.30
2018-05-17T15:30:51.063Z,37.10
2018-05-17T15:33:19.401Z,37.00
2018-05-17T15:35:46.881Z,36.30
2018-05-17T15:38:14.331Z,36.10
2018-05-17T15:40:41.919Z,36.60
2018-05-17T15:43:09.384Z,36.70
2018-05-17T15:45:36.941Z,36.90
2018-05-17T15:48:04.383Z,36.90
2018-05-17T15:50:33.591Z,36.30
2018-05-17T15:53:01.125Z,36.80
2018-05-17T15:55:28.652Z,36.20
2018-05-17T15:57:56.155Z,36.80
2018-05-17T16:00:23.631Z,37.10
2018-05-17T16:02:51.075Z,38.20
2018-05-17T16:05:18.523Z,37.20
2018-05-17T16:07:45.964Z,37.70
2018-05-17T16:10:13.502Z,38.10
2018-05-17T16:12:40.962Z,38.40
2018-05-17T16:15:08.533Z,38.20
2018-05-17T16:17:35.968Z,38.90
2018-05-17T16:20:03.433Z,38.40
2018-05-17T16:22:30.915Z,39.60
2018-05-17T16:24:58.443Z,38.90
2018-05-17T16:27:26.062Z,39.50
2018-05-17T16:29:54.550Z,40.20
2018-05-17T16:32:22.905Z,41.00
2018-05-17T16:34:51.256Z,41.00
2018-05-17T16:37:18.762Z,40.40
2018-05-17T16:39:46.971Z,41.90
2018-05-17T16:42:14.471Z,41.80
2018-05-17T16:44:41.951Z,41.40
2018-05-17T16:47:10.162Z,41.80
2018-05-17T16:49:37.640Z,41.80
2018-05-17T16:52:05.113Z,41.80
2018-05-17T16:54:32.647Z,41.90
2018-05-17T16:57:00.040Z,41.10
2018-05-17T16:59:27.530Z,41.90
2018-05-17T17:01:54.997Z,41.10
2018-05-17T17:04:22.488Z,42.00
2018-05-17T17:06:50.003Z,41.90
2018-05-17T17:09:18.945Z,42.40
2018-05-17T17:11:46.415Z,42.40
2018-05-17T17:14:14.201Z,42.90
2018-05-17T17:16:41.680Z,42.60
2018-05-17T17:19:09.171Z,43.10
2018-05-17T17:21:36.646Z,43.40
2018-05-17T17:24:05.696Z,44.10
2018-05-17T17:26:33.205Z,44.00
2018-05-17T17:29:02.153Z,44.70
2018-05-17T17:31:29.596Z,44.60
2018-05-17T17:33:57.089Z,44.70
2018-05-17T17:36:24.655Z,44.20
2018-05-17T17:38:52.056Z,45.30
2018-05-17T17:41:19.539Z,45.40
2018-05-17T17:43:46.984Z,45.30
2018-05-17T17:46:14.545Z,45.20
2018-05-17T17:48:42.041Z,45.40
2018-05-17T17:51:09.613Z,45.20
2018-05-17T17:53:37.068Z,45.40
2018-05-17T17:56:04.734Z,44.60
2018-05-17T17:58:32.467Z,44.60
2018-05-17T18:00:59.915Z,44.70
2018-05-17T18:03:27.379Z,44.40
2018-05-17T18:05:55.068Z,45.10
2018-05-17T18:08:22.513Z,45.80
2018-05-17T18:10:50.752Z,46.00
2018-05-17T18:13:18.210Z,46.00
2018-05-17T18:15:45.681Z,46.00
2018-05-17T18:18:13.155Z,45.90
2018-05-17T18:20:40.663Z,45.80
2018-05-17T18:23:08.602Z,45.70
2018-05-17T18:25:39.355Z,46.10
2018-05-17T18:28:07.574Z,46.50
2018-05-17T18:30:35.038Z,46.50
2018-05-17T18:33:05.717Z,47.20
2018-05-17T18:35:33.939Z,47.50
2018-05-17T18:38:01.471Z,47.40
2018-05-17T18:40:29.782Z,47.10
2018-05-17T18:42:57.996Z,47.30
2018-05-17T18:45:26.219Z,47.80
2018-05-17T18:47:53.774Z,47.70
2018-05-17T18:50:21.211Z,47.60
2018-05-17T18:52:49.234Z,47.40
2018-05-17T18:55:22.913Z,47.40
2018-05-17T18:57:44.357Z,46.80
2018-05-17T19:00:12.626Z,47.60
2018-05-17T19:02:40.236Z,47.60
2018-05-17T19:05:07.717Z,47.50
2018-05-17T19:07:35.162Z,47.50
2018-05-17T19:10:02.650Z,48.00
2018-05-17T19:12:30.117Z,48.10
2018-05-17T19:14:58.332Z,48.20
2018-05-17T19:17:25.801Z,48.40
2018-05-17T19:19:53.303Z,47.90
2018-05-17T19:22:20.750Z,47.90
2018-05-17T19:24:48.227Z,48.50
2018-05-17T19:27:16.479Z,48.30
2018-05-17T19:29:44.930Z,48.30
2018-05-17T19:32:12.442Z,48.50
2018-05-17T19:34:41.212Z,48.40
2018-05-17T19:37:08.840Z,47.90
2018-05-17T19:39:36.507Z,48.30
2018-05-17T19:42:04.858Z,48.10
2018-05-17T19:44:32.983Z,48.10
2018-05-17T19:47:02.433Z,48.70
2018-05-17T19:49:30.424Z,48.70
2018-05-17T19:52:01.127Z,48.30
2018-05-17T19:54:28.595Z,48.30
2018-05-17T19:56:56.103Z,48.00
2018-05-17T19:59:28.285Z,49.00
2018-05-17T20:01:56.590Z,48.20
2018-05-17T20:04:24.638Z,48.20
2018-05-17T20:06:52.158Z,48.50
2018-05-17T20:09:20.113Z,48.80
2018-05-17T20:11:47.653Z,48.80
2018-05-17T20:14:15.484Z,49.00
2018-05-17T20:16:43.097Z,48.40
2018-05-17T20:19:10.911Z,48.90
2018-05-17T20:21:38.395Z,48.90
2018-05-17T20:24:05.932Z,49.30
2018-05-17T20:26:33.443Z,49.40
2018-05-17T20:29:00.914Z,49.70
2018-05-17T20:31:28.461Z,49.90
2018-05-17T20:33:56.147Z,50.00
2018-05-17T20:36:23.600Z,50.50
2018-05-17T20:38:51.188Z,50.10
2018-05-17T20:41:21.150Z,50.10
2018-05-17T20:43:48.600Z,50.10
2018-05-17T20:46:16.391Z,50.30
2018-05-17T20:48:43.908Z,50.20
2018-05-17T20:51:11.592Z,50.20
2018-05-17T20:53:39.138Z,50.30
2018-05-17T20:56:06.985Z,50.10
2018-05-17T20:58:34.453Z,50.10
2018-05-17T21:01:07.211Z,50.30
2018-05-17T21:03:34.800Z,50.30
2018-05-17T21:06:02.438Z,50.50
2018-05-17T21:08:29.929Z,50.40
2018-05-17T21:10:57.558Z,50.40
2018-05-17T21:13:25.010Z,50.20
2018-05-17T21:15:52.707Z,50.10
2018-05-17T21:18:21.003Z,50.00
2018-05-17T21:20:48.470Z,50.00
2018-05-17T21:23:16.724Z,50.50
2018-05-17T21:25:44.166Z,50.50
2018-05-17T21:28:11.603Z,50.80
2018-05-17T21:30:39.094Z,50.70
2018-05-17T21:33:06.540Z,50.70
2018-05-17T21:35:33.991Z,51.40
2018-05-17T21:38:01.474Z,52.00
2018-05-17T21:40:28.907Z,52.20
2018-05-17T21:42:56.417Z,52.30
2018-05-17T21:45:23.895Z,52.10
2018-05-17T21:47:51.354Z,52.20
2018-05-17T21:50:18.807Z,52.10
2018-05-17T21:52:46.377Z,52.30
2018-05-17T21:55:13.826Z,52.60
2018-05-17T21:57:41.271Z,52.80
2018-05-17T22:00:08.739Z,52.30
2018-05-17T22:02:36.168Z,51.80
2018-05-17T22:05:04.410Z,51.30
2018-05-17T22:07:31.873Z,51.30
2018-05-17T22:09:59.391Z,51.70
2018-05-17T22:12:26.873Z,52.00
2018-05-17T22:14:54.361Z,52.40
2018-05-17T22:17:22.575Z,52.20
2018-05-17T22:19:50.041Z,52.20
2018-05-17T22:22:17.596Z,52.40
2018-05-17T22:24:45.256Z,52.40
2018-05-17T22:27:12.728Z,52.30
2018-05-17T22:29:40.264Z,52.40
2018-05-17T22:32:07.710Z,52.20
2018-05-17T22:34:35.164Z,52.00
2018-05-17T22:37:02.692Z,52.40
2018-05-17T22:39:30.138Z,52.50
2018-05-17T22:41:57.604Z,52.70
2018-05-17T22:44:25.067Z,53.00
2018-05-17T22:46:53.302Z,52.80
2018-05-17T22:49:20.739Z,52.70
2018-05-17T22:51:48.339Z,52.80
2018-05-17T22:54:15.721Z,52.90
2018-05-17T22:56:55.635Z,52.40
2018-05-17T22:59:23.123Z,52.40
2018-05-17T23:01:51.327Z,52.30
2018-05-17T23:04:18.875Z,52.30
2018-05-17T23:06:46.342Z,52.50
2018-05-17T23:09:13.796Z,52.30
2018-05-17T23:11:41.265Z,52.30
2018-05-17T23:14:08.724Z,52.40
2018-05-17T23:16:36.171Z,52.40
2018-05-17T23:19:03.650Z,52.70
2018-05-17T23:21:31.707Z,53.10
2018-05-17T23:23:59.089Z,52.90
2018-05-17T23:26:26.564Z,53.00
2018-05-17T23:28:54.027Z,52.90
2018-05-17T23:31:21.508Z,52.90
2018-05-17T23:33:49.091Z,53.00
2018-05-17T23:36:16.973Z,52.60
2018-05-17T23:38:44.514Z,52.50
2018-05-17T23:41:24.043Z,52.60
2018-05-17T23:43:51.499Z,52.70
2018-05-17T23:46:19.044Z,53.10
2018-05-17T23:48:46.527Z,53.70
2018-05-17T23:51:13.971Z,53.40
2018-05-17T23:53:41.404Z,53.40
2018-05-17T23:56:09.799Z,52.70
2018-05-17T23:58:37.248Z,52.70
